createdAt,value
2022-12-02T00:01:37.494Z,4.4
2022-12-02T00:16:39.495Z,2.2
2022-12-02T00:31:41.553Z,0
2022-12-02T00:46:43.568Z,2.2
2022-12-02T01:01:45.682Z,0
2022-12-02T01:16:47.712Z,2.2
2022-12-02T01:31:49.812Z,2.2
2022-12-02T01:46:51.804Z,0
2022-12-02T02:01:53.886Z,2.2
2022-12-02T02:16:55.904Z,0
2022-12-02T02:31:57.854Z,2.2
2022-12-02T02:46:59.959Z,2.2
2022-12-02T03:02:01.949Z,0
2022-12-02T03:17:04.001Z,2.2
2022-12-02T03:32:05.953Z,0
2022-12-02T03:47:08.005Z,0
2022-12-02T04:02:09.942Z,2.2
2022-12-02T04:17:11.852Z,0
2022-12-02T04:32:13.731Z,0
2022-12-02T04:47:15.703Z,0
2022-12-02T05:02:17.659Z,0
2022-12-02T05:17:19.616Z,0
2022-12-02T05:32:21.499Z,0
2022-12-02T05:47:23.434Z,0
2022-12-02T06:02:25.445Z,0
2022-12-02T06:17:27.581Z,0
2022-12-02T06:32:29.487Z,0
2022-12-02T06:47:31.480Z,0
2022-12-02T07:02:33.489Z,0
2022-12-02T07:17:35.480Z,0
2022-12-02T07:32:37.478Z,0
2022-12-02T07:47:39.504Z,0
2022-12-02T08:02:41.366Z,0
2022-12-02T08:17:43.248Z,0
2022-12-02T08:32:45.185Z,0
2022-12-02T08:47:47.155Z,0
2022-12-02T09:02:49.142Z,0
2022-12-02T09:17:51.137Z,0
2022-12-02T09:32:53.074Z,0
2022-12-02T09:47:55.044Z,0
2022-12-02T10:02:57.098Z,0
2022-12-02T10:17:59.170Z,0
2022-12-02T10:33:01.099Z,0
2022-12-02T10:48:03.026Z,0
2022-12-02T11:03:05.030Z,0
2022-12-02T11:18:06.969Z,0
2022-12-02T11:33:08.924Z,0
2022-12-02T11:48:10.864Z,0
2022-12-02T12:03:12.981Z,0
2022-12-02T12:18:15.026Z,0
2022-12-02T12:33:17.012Z,0
2022-12-02T12:48:18.983Z,0
2022-12-02T13:03:20.982Z,0
2022-12-02T13:18:22.920Z,0
2022-12-02T13:33:24.854Z,0
2022-12-02T13:48:26.768Z,0
2022-12-02T14:03:28.748Z,0
2022-12-02T14:18:30.902Z,0
2022-12-02T14:34:03.059Z,0
2022-12-02T14:49:38.295Z,8.8
2022-12-02T15:04:41.276Z,6.6
2022-12-02T15:19:43.220Z,8.8
2022-12-02T15:34:45.136Z,8.8
2022-12-02T15:49:47.083Z,17.6
2022-12-02T16:04:49.185Z,35.2
2022-12-02T16:19:51.139Z,41.8
2022-12-02T16:34:53.356Z,52.8
2022-12-02T16:49:55.779Z,50.6
2022-12-02T17:04:57.745Z,63.8
2022-12-02T17:19:59.650Z,79.2
2022-12-02T17:35:01.533Z,79.2
2022-12-02T17:50:03.460Z,83.6
2022-12-02T18:05:05.379Z,99
2022-12-02T18:20:07.306Z,99
2022-12-02T18:35:09.268Z,105.6
2022-12-02T18:50:11.203Z,105.6
2022-12-02T19:05:13.159Z,110
2022-12-02T19:20:15.105Z,132
2022-12-02T19:35:17.083Z,149.6
2022-12-02T19:50:18.987Z,121
2022-12-02T20:05:20.935Z,121
2022-12-02T20:20:22.848Z,107.8
2022-12-02T20:35:24.763Z,72.6
2022-12-02T20:50:26.636Z,72.6
2022-12-02T21:05:28.672Z,63.8
2022-12-02T21:20:30.592Z,70.4
2022-12-02T21:35:32.482Z,52.8
2022-12-02T21:50:34.343Z,52.8
2022-12-02T22:05:36.275Z,44
2022-12-02T22:20:38.200Z,33
2022-12-02T22:35:40.131Z,26.4
2022-12-02T22:50:42.030Z,22
2022-12-02T23:05:43.974Z,17.6
2022-12-02T23:20:45.876Z,8.8
2022-12-02T23:35:47.822Z,6.6
2022-12-02T23:50:49.746Z,2.2
